Time;durP1;ratioP1;P1;durP2;ratioP2;P2;SDS_P1;SDS_P2;PMS_P1;PMS_P2;Temp;Humidity;BMP_temperature;BMP_pressure;BME280_temperature;BME280_humidity;BME280_pressure;Samples;Min_cycle;Max_cycle;Signal;HPM_P1;HPM_P2
2021/05/17 00:01:32;;;;;;;8.03;6.40;;;12.00;99.90;;;;;;4921787;29;20540;-67
2021/05/17 00:04:04;;;;;;;7.47;6.07;;;12.00;99.90;;;;;;4917111;29;20473;-67
2021/05/17 00:06:32;;;;;;;10.00;6.30;;;12.00;99.90;;;;;;4918259;29;20459;-67
2021/05/17 00:09:00;;;;;;;8.77;6.40;;;12.00;99.90;;;;;;4929869;29;20536;-67
2021/05/17 00:11:28;;;;;;;9.57;7.00;;;11.90;99.90;;;;;;4929723;29;20487;-67
2021/05/17 00:13:56;;;;;;;6.20;5.60;;;11.90;99.90;;;;;;4932567;29;20452;-67
2021/05/17 00:16:24;;;;;;;6.30;5.67;;;11.90;99.90;;;;;;4937399;29;20444;-68
2021/05/17 00:18:52;;;;;;;8.10;7.20;;;11.90;99.90;;;;;;4936345;29;20471;-67
2021/05/17 00:21:20;;;;;;;7.67;6.87;;;11.90;99.90;;;;;;4937162;29;20446;-67
2021/05/17 00:23:48;;;;;;;7.30;6.17;;;11.90;99.90;;;;;;4936995;29;20444;-67
2021/05/17 00:26:16;;;;;;;5.97;5.37;;;11.90;99.90;;;;;;4937022;29;20439;-67
2021/05/17 00:28:44;;;;;;;8.00;6.30;;;11.80;99.90;;;;;;4936932;29;20480;-67
2021/05/17 00:31:14;;;;;;;5.87;5.27;;;11.80;99.90;;;;;;4937420;29;20432;-67
2021/05/17 00:33:43;;;;;;;8.23;5.97;;;11.80;99.90;;;;;;4936767;29;20448;-67
2021/05/17 00:36:11;;;;;;;7.70;5.80;;;11.80;99.90;;;;;;4926207;29;20536;-67
2021/05/17 00:38:40;;;;;;;6.80;6.13;;;11.80;99.90;;;;;;4898684;29;20508;-67
2021/05/17 00:41:07;;;;;;;6.23;5.63;;;11.70;99.90;;;;;;4899205;29;20457;-67
2021/05/17 00:43:36;;;;;;;7.97;6.30;;;11.70;99.90;;;;;;4907798;29;20460;-67
2021/05/17 00:46:04;;;;;;;7.70;6.63;;;11.70;99.90;;;;;;4936603;29;20463;-67
2021/05/17 00:48:34;;;;;;;9.15;6.30;;;11.70;99.90;;;;;;4925973;29;20506;-67
2021/05/17 00:51:02;;;;;;;9.10;7.23;;;11.70;99.90;;;;;;4916400;29;20296;-67
2021/05/17 00:53:30;;;;;;;7.73;5.80;;;11.70;99.90;;;;;;4917848;29;20447;-67
2021/05/17 00:55:58;;;;;;;8.50;5.97;;;11.60;99.90;;;;;;4916201;29;20504;-67
2021/05/17 00:58:27;;;;;;;6.95;6.00;;;11.60;99.90;;;;;;4917382;29;20568;-67
2021/05/17 01:00:54;;;;;;;5.30;4.80;;;11.60;99.90;;;;;;4916183;29;20200;-67
2021/05/17 01:03:23;;;;;;;7.90;5.90;;;11.60;99.90;;;;;;4921424;29;20457;-67
2021/05/17 01:06:05;;;;;;;6.47;5.80;;;11.60;99.90;;;;;;4923705;29;20612;-66
2021/05/17 01:08:39;;;;;;;8.60;6.50;;;11.50;99.90;;;;;;4936319;29;20456;-67
2021/05/17 01:11:08;;;;;;;6.77;5.60;;;11.50;99.90;;;;;;4916092;29;20463;-67
2021/05/17 01:13:37;;;;;;;7.03;5.80;;;11.50;99.90;;;;;;4917570;29;20444;-67
2021/05/17 01:16:07;;;;;;;6.83;6.00;;;11.40;99.90;;;;;;4915981;29;20453;-67
2021/05/17 01:18:35;;;;;;;7.30;6.00;;;11.40;99.90;;;;;;4917094;29;20473;-67
2021/05/17 01:21:05;;;;;;;5.97;5.03;;;11.40;99.90;;;;;;4915891;29;20457;-67
2021/05/17 01:23:45;;;;;;;6.93;5.97;;;11.30;99.90;;;;;;4933440;29;20452;-67
2021/05/17 01:26:15;;;;;;;6.03;5.43;;;11.30;99.90;;;;;;4936189;29;20460;-67
2021/05/17 01:28:45;;;;;;;7.13;5.70;;;11.30;99.90;;;;;;4923210;29;20892;-67
2021/05/17 01:31:15;;;;;;;7.50;5.90;;;11.30;99.90;;;;;;4917632;29;20425;-67
2021/05/17 01:33:44;;;;;;;8.80;6.57;;;11.20;99.90;;;;;;4915739;29;20456;-67
2021/05/17 01:36:15;;;;;;;6.90;6.13;;;11.20;99.90;;;;;;4916874;29;20437;-67
2021/05/17 01:38:48;;;;;;;8.87;6.33;;;11.20;99.90;;;;;;4917105;29;20891;-67
2021/05/17 01:41:19;;;;;;;7.00;6.27;;;11.10;99.90;;;;;;4933299;29;20829;-66
2021/05/17 01:43:51;;;;;;;7.97;6.07;;;11.10;99.90;;;;;;4935214;29;20448;-67
2021/05/17 01:46:21;;;;;;;7.50;6.40;;;11.10;99.90;;;;;;4925599;29;20453;-67
2021/05/17 01:48:55;;;;;;;8.30;6.87;;;11.00;99.90;;;;;;4917868;29;20444;-67
2021/05/17 01:51:25;;;;;;;9.47;7.20;;;11.00;99.90;;;;;;4915687;29;20448;-67
2021/05/17 01:53:59;;;;;;;7.83;7.00;;;10.90;99.90;;;;;;4915554;29;20850;-67
2021/05/17 01:56:29;;;;;;;7.87;7.17;;;10.90;99.90;;;;;;4917397;29;20516;-66
2021/05/17 01:59:10;;;;;;;7.60;6.77;;;10.90;99.90;;;;;;4916065;29;20464;-67
2021/05/17 02:01:38;;;;;;;7.80;6.70;;;10.80;99.90;;;;;;4919548;29;20821;-67
2021/05/17 02:04:06;;;;;;;9.80;7.60;;;10.80;99.90;;;;;;4934449;29;20482;-67
2021/05/17 02:06:34;;;;;;;9.30;6.73;;;10.80;99.90;;;;;;4934432;29;20459;-67
2021/05/17 02:09:03;;;;;;;8.77;6.85;;;10.70;99.90;;;;;;4935674;29;20445;-67
2021/05/17 02:11:32;;;;;;;8.80;7.60;;;10.70;99.90;;;;;;4933524;29;20187;-67
2021/05/17 02:14:10;;;;;;;8.00;7.00;;;10.60;99.90;;;;;;4935258;29;20503;-66
2021/05/17 02:16:39;;;;;;;8.97;7.20;;;10.60;99.90;;;;;;4917467;29;20457;-67
2021/05/17 02:19:07;;;;;;;9.30;8.40;;;10.60;99.90;;;;;;4931718;29;20467;-66
2021/05/17 02:21:35;;;;;;;12.73;8.07;;;10.60;99.90;;;;;;4922014;29;20288;-66
2021/05/17 02:24:11;;;;;;;8.27;7.40;;;10.50;99.90;;;;;;4915336;29;20503;-66
2021/05/17 02:26:39;;;;;;;9.43;8.53;;;10.50;99.90;;;;;;4916538;29;21004;-67
2021/05/17 02:29:08;;;;;;;9.30;8.07;;;10.50;99.90;;;;;;4916819;29;20440;-67
2021/05/17 02:31:36;;;;;;;9.87;8.33;;;10.40;99.90;;;;;;4933049;29;20443;-67
2021/05/17 02:34:05;;;;;;;9.90;8.87;;;10.40;99.90;;;;;;4935685;29;20815;-67
2021/05/17 02:36:34;;;;;;;9.80;8.80;;;10.30;99.90;;;;;;4920660;29;20460;-66
2021/05/17 02:39:02;;;;;;;10.97;8.20;;;10.30;99.90;;;;;;4916588;29;20889;-67
2021/05/17 02:41:35;;;;;;;9.43;8.33;;;10.30;99.90;;;;;;4937005;29;20450;-67
2021/05/17 02:44:04;;;;;;;9.73;8.83;;;10.30;99.90;;;;;;4937829;29;20482;-67
2021/05/17 02:46:33;;;;;;;13.20;8.93;;;10.20;99.90;;;;;;4921607;29;20452;-67
2021/05/17 02:49:01;;;;;;;9.00;7.87;;;10.20;99.90;;;;;;4919574;29;21029;-66
2021/05/17 02:51:29;;;;;;;9.40;8.40;;;10.20;99.90;;;;;;4919547;29;20512;-66
2021/05/17 02:54:10;;;;;;;9.77;8.87;;;10.20;99.90;;;;;;4918569;29;20456;-67
2021/05/17 02:57:02;;;;;;;9.80;8.90;;;10.10;99.90;;;;;;4935687;29;20558;-67
2021/05/17 02:59:53;;;;;;;10.60;9.40;;;10.10;99.90;;;;;;4937322;29;20479;-67
2021/05/17 03:02:26;;;;;;;10.27;9.20;;;10.10;99.90;;;;;;4926981;29;20839;-67
2021/05/17 03:04:58;;;;;;;9.00;8.20;;;10.10;99.90;;;;;;4937182;29;20476;-67
2021/05/17 03:07:29;;;;;;;12.20;8.43;;;10.10;99.90;;;;;;4925845;29;20478;-67
2021/05/17 03:10:01;;;;;;;9.37;8.30;;;10.00;99.90;;;;;;4937128;29;20483;-67
2021/05/17 03:12:34;;;;;;;8.97;8.10;;;10.00;99.90;;;;;;4926193;29;20488;-66
2021/05/17 03:15:02;;;;;;;10.23;9.17;;;10.00;99.90;;;;;;4932103;29;20484;-66
2021/05/17 03:17:31;;;;;;;9.47;8.57;;;10.00;99.90;;;;;;4937130;29;20455;-66
2021/05/17 03:19:59;;;;;;;10.47;8.17;;;10.00;99.90;;;;;;4936796;29;20538;-66
2021/05/17 03:22:30;;;;;;;10.27;9.17;;;9.90;99.90;;;;;;4938048;29;20534;-67
2021/05/17 03:24:59;;;;;;;9.43;8.53;;;9.90;99.90;;;;;;4938505;29;20496;-66
2021/05/17 03:27:28;;;;;;;9.13;8.30;;;9.90;99.90;;;;;;4934688;29;20448;-67
2021/05/17 03:29:57;;;;;;;10.27;9.27;;;9.90;99.90;;;;;;4937889;29;20456;-67
2021/05/17 03:32:26;;;;;;;10.00;9.10;;;9.90;99.90;;;;;;4922219;29;20814;-67
2021/05/17 03:34:54;;;;;;;11.30;9.40;;;9.80;99.90;;;;;;4919050;29;20470;-66
2021/05/17 03:37:21;;;;;;;10.87;9.60;;;9.80;99.90;;;;;;4918882;29;20967;-67
2021/05/17 03:39:50;;;;;;;10.10;8.70;;;9.80;99.90;;;;;;4918839;29;20541;-66
2021/05/17 03:42:18;;;;;;;11.00;9.37;;;9.80;99.90;;;;;;4929232;29;20460;-66
2021/05/17 03:44:46;;;;;;;9.70;8.70;;;9.70;99.90;;;;;;4937696;29;20558;-66
2021/05/17 03:47:14;;;;;;;10.40;9.43;;;9.70;99.90;;;;;;4936483;29;20459;-66
2021/05/17 03:49:42;;;;;;;9.97;8.97;;;9.70;99.90;;;;;;4938218;29;20438;-66
2021/05/17 03:52:10;;;;;;;11.53;8.93;;;9.70;99.90;;;;;;4926404;29;20487;-67
2021/05/17 03:54:38;;;;;;;9.40;8.50;;;9.60;99.90;;;;;;4933225;29;20535;-66
2021/05/17 03:57:06;;;;;;;10.53;9.50;;;9.60;99.90;;;;;;4918542;29;20810;-67
2021/05/17 03:59:34;;;;;;;10.30;9.30;;;9.60;99.90;;;;;;4917185;29;20475;-67
2021/05/17 04:02:02;;;;;;;9.17;8.20;;;9.60;99.90;;;;;;4920494;29;20532;-67
2021/05/17 04:04:36;;;;;;;12.93;10.67;;;9.60;99.90;;;;;;4917441;29;20891;-67
2021/05/17 04:07:07;;;;;;;11.10;9.90;;;9.60;99.90;;;;;;4918303;29;20428;-67
2021/05/17 04:15:06;;;;;;;20.33;16.40;;;9.60;99.90;;;;;;4922660;29;20888;-67
2021/05/17 04:17:34;;;;;;;12.03;10.73;;;9.60;99.90;;;;;;4937039;29;20451;-66
2021/05/17 04:20:03;;;;;;;10.27;9.37;;;9.60;99.90;;;;;;4935692;29;20838;-67
2021/05/17 04:22:30;;;;;;;11.97;10.33;;;9.60;99.90;;;;;;4927248;29;20858;-67
2021/05/17 04:24:58;;;;;;;10.93;9.77;;;9.60;99.90;;;;;;4917957;29;20457;-67
2021/05/17 04:27:25;;;;;;;11.33;9.70;;;9.60;99.90;;;;;;4930527;29;20497;-67
2021/05/17 04:29:53;;;;;;;10.50;9.50;;;9.60;99.90;;;;;;4935731;29;20507;-67
2021/05/17 04:32:20;;;;;;;11.70;10.50;;;9.60;99.90;;;;;;4936950;29;20440;-67
2021/05/17 04:34:48;;;;;;;10.23;9.33;;;9.60;99.90;;;;;;4936834;29;20460;-67
2021/05/17 04:37:17;;;;;;;10.97;9.97;;;9.60;99.90;;;;;;4936862;29;20498;-67
2021/05/17 04:39:44;;;;;;;10.50;9.40;;;9.60;99.90;;;;;;4936917;29;20485;-67
2021/05/17 04:42:12;;;;;;;10.30;9.30;;;9.60;99.90;;;;;;4936820;29;20497;-67
2021/05/17 04:44:40;;;;;;;11.47;10.27;;;9.60;99.90;;;;;;4937046;29;21032;-67
2021/05/17 04:47:07;;;;;;;12.43;11.17;;;9.60;99.90;;;;;;4937062;29;20936;-67
2021/05/17 04:49:35;;;;;;;11.23;10.13;;;9.60;99.90;;;;;;4937232;29;20531;-66
2021/05/17 04:52:03;;;;;;;12.63;11.50;;;9.60;99.90;;;;;;4935367;29;20447;-67
2021/05/17 04:54:32;;;;;;;10.90;9.80;;;9.60;99.90;;;;;;4936916;29;20497;-67
2021/05/17 04:56:59;;;;;;;13.30;10.20;;;9.70;99.90;;;;;;4937032;29;20450;-67
2021/05/17 04:59:28;;;;;;;11.33;10.33;;;9.70;99.90;;;;;;4935146;29;20468;-67
2021/05/17 05:01:55;;;;;;;12.07;10.83;;;9.70;99.90;;;;;;4934301;29;20539;-67
2021/05/17 05:04:23;;;;;;;13.53;11.23;;;9.80;99.90;;;;;;4936211;29;20527;-67
2021/05/17 05:06:50;;;;;;;12.10;10.90;;;9.80;99.90;;;;;;4936438;29;20510;-66
2021/05/17 05:09:18;;;;;;;12.40;11.30;;;9.80;99.90;;;;;;4936475;29;20451;-66
2021/05/17 05:11:48;;;;;;;12.60;11.30;;;9.80;99.90;;;;;;4936600;29;20531;-66
2021/05/17 05:14:16;;;;;;;13.00;11.70;;;9.90;99.90;;;;;;4936208;29;20562;-66
2021/05/17 05:16:44;;;;;;;12.40;11.10;;;9.90;99.90;;;;;;4936730;29;20438;-66
2021/05/17 05:19:11;;;;;;;14.60;13.30;;;10.00;99.90;;;;;;4936479;29;20502;-67
2021/05/17 05:21:39;;;;;;;13.47;12.17;;;10.10;99.90;;;;;;4936204;29;20506;-67
2021/05/17 05:24:09;;;;;;;12.83;11.50;;;10.10;99.90;;;;;;4936116;29;20468;-67
2021/05/17 05:26:51;;;;;;;14.90;12.73;;;10.20;99.90;;;;;;4934823;29;20936;-67
2021/05/17 05:29:27;;;;;;;13.30;11.90;;;10.20;99.90;;;;;;4936237;29;20545;-66
2021/05/17 05:31:58;;;;;;;13.10;11.70;;;10.20;99.90;;;;;;4936341;29;20881;-66
2021/05/17 05:34:29;;;;;;;12.50;10.13;;;10.30;99.90;;;;;;4936339;29;20980;-66
2021/05/17 05:36:58;;;;;;;14.60;11.80;;;10.30;99.90;;;;;;4934807;29;20436;-67
2021/05/17 05:39:27;;;;;;;14.70;13.20;;;10.40;99.90;;;;;;4935823;29;20482;-67
2021/05/17 05:41:55;;;;;;;12.80;11.50;;;10.40;99.90;;;;;;4935992;29;20535;-67
2021/05/17 05:44:23;;;;;;;13.53;12.23;;;10.50;99.90;;;;;;4935877;29;20469;-67
2021/05/17 05:46:51;;;;;;;12.27;10.97;;;10.50;99.90;;;;;;4935953;29;20476;-67
2021/05/17 05:49:18;;;;;;;13.53;12.20;;;10.60;99.90;;;;;;4934633;29;20444;-66
2021/05/17 05:51:46;;;;;;;13.90;12.50;;;10.70;99.90;;;;;;4936203;29;20760;-67
2021/05/17 05:54:14;;;;;;;15.77;13.43;;;10.80;99.90;;;;;;4934574;29;20528;-67
2021/05/17 05:56:42;;;;;;;13.20;11.90;;;10.90;99.90;;;;;;4935805;29;20449;-67
2021/05/17 05:59:09;;;;;;;27.53;13.30;;;11.00;99.90;;;;;;4935717;29;20558;-67
2021/05/17 06:01:38;;;;;;;20.43;16.60;;;11.10;99.90;;;;;;4934808;29;20451;-67
2021/05/17 06:04:06;;;;;;;15.37;13.77;;;11.30;99.90;;;;;;4936042;29;20851;-67
2021/05/17 06:06:33;;;;;;;15.67;13.70;;;11.50;99.90;;;;;;4936082;29;20523;-67
2021/05/17 06:09:01;;;;;;;14.93;13.43;;;11.70;99.90;;;;;;4935804;29;20535;-67
2021/05/17 06:11:29;;;;;;;15.50;13.77;;;11.80;99.90;;;;;;4935656;29;20446;-67
2021/05/17 06:13:57;;;;;;;14.50;13.00;;;11.90;99.90;;;;;;4935706;29;20530;-67
2021/05/17 06:16:25;;;;;;;14.83;13.23;;;11.90;99.90;;;;;;4937549;29;20800;-67
2021/05/17 06:18:55;;;;;;;14.10;12.40;;;12.00;99.90;;;;;;4939320;29;20542;-67
2021/05/17 06:21:23;;;;;;;13.53;12.23;;;12.00;99.90;;;;;;4939619;29;20463;-67
2021/05/17 06:23:51;;;;;;;15.13;13.60;;;12.00;99.90;;;;;;4939465;29;20495;-67
2021/05/17 06:26:19;;;;;;;14.20;12.77;;;12.00;99.90;;;;;;4939456;29;20507;-67
2021/05/17 06:28:47;;;;;;;13.50;12.10;;;12.00;99.90;;;;;;4939166;29;20444;-67
2021/05/17 06:31:16;;;;;;;13.73;11.50;;;12.00;99.90;;;;;;4939417;29;20459;-67
2021/05/17 06:33:45;;;;;;;11.77;10.43;;;12.00;99.90;;;;;;4939286;29;20450;-67
2021/05/17 06:36:16;;;;;;;13.47;12.17;;;12.10;99.90;;;;;;4939067;29;20880;-67
2021/05/17 06:38:44;;;;;;;13.20;11.80;;;12.10;99.90;;;;;;4939207;29;20449;-67
2021/05/17 06:41:13;;;;;;;14.10;11.23;;;12.20;99.90;;;;;;4937646;29;20306;-67
2021/05/17 06:43:41;;;;;;;11.57;10.47;;;12.30;99.90;;;;;;4938496;29;20551;-67
2021/05/17 06:46:09;;;;;;;11.67;10.03;;;12.30;99.90;;;;;;4939180;29;20813;-67
2021/05/17 06:48:42;;;;;;;10.23;9.10;;;12.40;99.90;;;;;;4939154;29;20424;-67
2021/05/17 06:51:16;;;;;;;11.37;10.00;;;12.50;99.90;;;;;;4939369;29;20507;-67
2021/05/17 06:53:44;;;;;;;10.50;9.50;;;12.50;99.90;;;;;;4937458;29;20464;-67
2021/05/17 06:56:18;;;;;;;10.90;9.80;;;12.60;99.90;;;;;;4939276;29;20515;-67
2021/05/17 06:58:56;;;;;;;11.57;10.37;;;12.60;99.90;;;;;;4938973;29;20452;-67
2021/05/17 07:01:24;;;;;;;11.27;10.10;;;12.70;99.90;;;;;;4938935;29;20515;-67
2021/05/17 07:03:52;;;;;;;11.67;10.47;;;12.80;99.90;;;;;;4937586;29;20933;-67
2021/05/17 07:06:23;;;;;;;10.07;9.07;;;12.80;99.90;;;;;;4938772;29;20861;-67
2021/05/17 07:11:46;;;;;;;10.90;9.90;;;13.00;99.90;;;;;;4938941;29;20452;-67
2021/05/17 07:14:15;;;;;;;9.63;8.70;;;13.00;99.90;;;;;;4940640;29;20471;-67
2021/05/17 07:16:43;;;;;;;7.30;6.60;;;13.10;99.90;;;;;;4938756;29;20427;-67
2021/05/17 07:19:10;;;;;;;9.60;8.00;;;13.10;99.90;;;;;;4938182;29;20495;-67
2021/05/17 07:24:27;;;;;;;9.27;7.83;;;13.20;99.90;;;;;;4936927;29;20480;-67
2021/05/17 07:26:55;;;;;;;9.43;7.67;;;13.30;99.90;;;;;;4936639;29;20953;-67
2021/05/17 07:29:23;;;;;;;10.23;7.70;;;13.30;99.90;;;;;;4938084;29;20436;-67
2021/05/17 07:31:50;;;;;;;13.03;7.90;;;13.40;99.90;;;;;;4938339;29;20800;-67
2021/05/17 07:34:18;;;;;;;10.00;9.00;;;13.40;99.90;;;;;;4936689;29;20838;-67
2021/05/17 07:36:47;;;;;;;8.37;7.63;;;13.50;99.90;;;;;;4938341;29;20490;-67
2021/05/17 07:39:15;;;;;;;11.10;7.87;;;13.50;99.90;;;;;;4937970;29;20944;-67
2021/05/17 07:41:43;;;;;;;9.80;7.87;;;13.50;99.90;;;;;;4938457;29;20434;-68
2021/05/17 07:44:10;;;;;;;8.30;7.50;;;13.50;99.90;;;;;;4937782;29;20487;-67
2021/05/17 07:46:38;;;;;;;8.70;7.80;;;13.60;99.90;;;;;;4938118;29;20534;-68
2021/05/17 07:49:12;;;;;;;8.73;7.87;;;13.60;99.90;;;;;;4938259;29;20454;-68
2021/05/17 07:51:42;;;;;;;9.27;7.77;;;13.60;99.90;;;;;;4938240;29;20416;-67
2021/05/17 07:54:12;;;;;;;11.73;7.60;;;13.60;99.90;;;;;;4937877;29;21019;-68
2021/05/17 07:56:40;;;;;;;8.03;7.23;;;13.60;99.90;;;;;;4938147;29;20507;-67
2021/05/17 07:59:08;;;;;;;9.13;8.33;;;13.70;99.90;;;;;;4938111;29;20478;-67
2021/05/17 08:01:36;;;;;;;9.37;8.47;;;13.80;99.90;;;;;;4937791;29;20955;-67
2021/05/17 08:04:05;;;;;;;8.63;7.73;;;13.80;99.90;;;;;;4937394;29;20798;-68
2021/05/17 08:06:32;;;;;;;8.63;6.80;;;13.90;99.90;;;;;;4938116;29;20450;-67
2021/05/17 08:09:00;;;;;;;7.67;6.90;;;13.90;99.90;;;;;;4937491;29;20454;-67
2021/05/17 08:11:29;;;;;;;8.75;7.95;;;14.00;99.90;;;;;;4936707;29;20526;-68
2021/05/17 08:13:56;;;;;;;8.57;7.73;;;14.00;99.90;;;;;;4937258;29;20196;-68
2021/05/17 08:16:24;;;;;;;7.93;7.13;;;14.10;99.90;;;;;;4937303;29;20426;-67
2021/05/17 08:18:52;;;;;;;9.83;8.57;;;14.10;99.90;;;;;;4938028;29;20748;-67
2021/05/17 08:21:21;;;;;;;11.80;9.07;;;14.10;99.90;;;;;;4937141;29;20507;-67
2021/05/17 08:23:48;;;;;;;9.27;8.40;;;14.10;99.90;;;;;;4937073;29;20848;-67
2021/05/17 08:26:16;;;;;;;8.27;7.53;;;14.10;99.90;;;;;;4937669;29;20495;-67
2021/05/17 08:28:45;;;;;;;9.20;8.30;;;14.20;99.90;;;;;;4935974;29;20450;-67
2021/05/17 08:31:13;;;;;;;10.40;9.37;;;14.20;99.90;;;;;;4937402;29;20812;-67
2021/05/17 08:33:41;;;;;;;9.90;9.10;;;14.30;99.90;;;;;;4937290;29;20414;-67
2021/05/17 08:36:10;;;;;;;9.60;8.43;;;14.30;99.90;;;;;;4936914;29;20453;-67
2021/05/17 08:38:38;;;;;;;9.57;8.63;;;14.40;99.90;;;;;;4936094;29;20446;-68
2021/05/17 08:41:07;;;;;;;9.37;8.47;;;14.40;99.90;;;;;;4935570;29;20464;-67
2021/05/17 08:43:36;;;;;;;9.37;8.50;;;14.50;99.90;;;;;;4936871;29;20432;-67
2021/05/17 08:46:05;;;;;;;9.10;8.30;;;14.50;99.90;;;;;;4936662;29;20449;-68
2021/05/17 08:48:33;;;;;;;8.73;7.93;;;14.70;99.90;;;;;;4935405;29;20418;-67
2021/05/17 08:51:00;;;;;;;10.10;8.30;;;14.90;99.90;;;;;;4936659;29;20421;-68
2021/05/17 08:53:29;;;;;;;8.43;7.57;;;15.20;99.90;;;;;;4936544;29;20440;-68
2021/05/17 08:55:56;;;;;;;9.57;8.70;;;15.40;99.90;;;;;;4936688;29;20494;-68
2021/05/17 08:58:24;;;;;;;9.13;8.23;;;15.50;99.90;;;;;;4935246;29;20535;-68
2021/05/17 09:00:52;;;;;;;9.90;8.90;;;15.70;99.90;;;;;;4935134;29;20476;-68
2021/05/17 09:03:20;;;;;;;10.67;9.47;;;15.70;99.90;;;;;;4937017;29;20507;-68
2021/05/17 09:05:48;;;;;;;8.23;7.60;;;15.90;99.90;;;;;;4935114;29;20468;-68
2021/05/17 09:08:18;;;;;;;7.97;7.30;;;16.10;99.90;;;;;;4936755;29;20515;-68
2021/05/17 09:10:47;;;;;;;7.93;7.13;;;16.30;99.90;;;;;;4936491;29;20481;-68
2021/05/17 09:13:15;;;;;;;7.47;6.77;;;16.30;99.90;;;;;;4936363;29;20440;-68
2021/05/17 09:15:45;;;;;;;7.50;6.90;;;16.40;99.90;;;;;;4935004;29;20912;-68
2021/05/17 09:18:14;;;;;;;8.10;7.40;;;16.40;99.90;;;;;;4936259;29;20436;-68
2021/05/17 09:20:44;;;;;;;8.52;7.72;;;16.40;99.90;;;;;;4934047;29;20457;-68
2021/05/17 09:23:15;;;;;;;8.00;7.30;;;16.50;99.90;;;;;;4936150;29;20198;-68
2021/05/17 09:26:00;;;;;;;7.73;6.93;;;16.60;99.90;;;;;;4936085;29;20974;-68
2021/05/17 09:28:29;;;;;;;8.80;8.00;;;16.80;99.90;;;;;;4936395;29;20432;-68
2021/05/17 09:31:04;;;;;;;8.18;7.47;;;16.90;99.90;;;;;;4934108;29;20536;-67
2021/05/17 09:33:40;;;;;;;7.73;7.10;;;17.00;99.90;;;;;;4936430;29;20184;-67
2021/05/17 09:36:22;;;;;;;8.20;7.50;;;17.00;99.90;;;;;;4936614;29;20463;-67
2021/05/17 09:38:59;;;;;;;7.40;6.80;;;17.10;99.90;;;;;;4936144;29;20459;-68
2021/05/17 09:41:41;;;;;;;8.17;7.37;;;17.30;99.90;;;;;;4935992;29;20468;-67
2021/05/17 09:44:11;;;;;;;7.30;6.47;;;17.50;99.90;;;;;;4936417;29;20466;-68
2021/05/17 09:47:01;;;;;;;6.97;6.47;;;17.70;99.90;;;;;;4934774;29;20456;-68
2021/05/17 09:49:35;;;;;;;7.87;7.17;;;17.80;99.90;;;;;;4936643;29;20967;-68
2021/05/17 09:52:15;;;;;;;10.37;7.60;;;18.00;99.90;;;;;;4940179;29;20424;-68
2021/05/17 09:54:55;;;;;;;7.50;6.83;;;18.10;99.90;;;;;;4940331;29;20459;-68
2021/05/17 09:57:25;;;;;;;7.43;6.73;;;18.10;99.90;;;;;;4938583;29;20468;-68
2021/05/17 09:59:54;;;;;;;6.70;6.10;;;18.20;99.90;;;;;;4939760;29;20538;-68
2021/05/17 10:02:33;;;;;;;7.23;6.63;;;18.30;99.90;;;;;;4939712;29;20488;-68
2021/05/17 10:05:19;;;;;;;7.80;7.00;;;18.60;99.90;;;;;;4939838;29;20546;-68
2021/05/17 10:07:49;;;;;;;5.97;5.43;;;18.70;99.90;;;;;;4939677;29;20507;-68
2021/05/17 10:10:32;;;;;;;6.70;6.10;;;18.90;99.90;;;;;;4939808;29;20423;-68
2021/05/17 10:13:01;;;;;;;6.70;6.03;;;19.00;99.90;;;;;;4939865;29;20850;-68
2021/05/17 10:15:31;;;;;;;5.67;5.17;;;19.20;99.90;;;;;;4939349;29;20455;-68
2021/05/17 10:18:10;;;;;;;5.13;4.63;;;19.30;99.90;;;;;;4938250;29;20527;-68
2021/05/17 10:20:37;;;;;;;5.17;4.67;;;19.40;99.90;;;;;;4939375;29;20522;-69
2021/05/17 10:23:06;;;;;;;5.00;4.60;;;19.40;99.90;;;;;;4939848;29;20499;-69
2021/05/17 10:25:39;;;;;;;6.67;6.07;;;19.50;99.90;;;;;;4940187;29;20471;-69
2021/05/17 10:28:10;;;;;;;6.57;5.97;;;19.60;99.90;;;;;;4937964;29;21037;-69
2021/05/17 10:30:39;;;;;;;6.30;5.80;;;19.60;99.90;;;;;;4939761;29;20532;-68
2021/05/17 10:33:07;;;;;;;6.90;6.30;;;19.60;99.90;;;;;;4939421;29;20849;-69
2021/05/17 10:35:46;;;;;;;7.63;7.03;;;19.60;99.90;;;;;;4938989;29;20495;-69
2021/05/17 10:38:24;;;;;;;8.13;7.47;;;19.60;99.90;;;;;;4939617;29;20426;-69
2021/05/17 10:40:58;;;;;;;9.43;7.60;;;19.60;99.90;;;;;;4938919;29;20507;-69
2021/05/17 10:43:54;;;;;;;8.43;7.63;;;19.60;99.90;;;;;;4938974;29;20459;-69
2021/05/17 10:46:39;;;;;;;8.90;8.10;;;19.50;99.90;;;;;;4939466;29;20433;-68
2021/05/17 10:49:30;;;;;;;9.87;8.97;;;19.50;99.90;;;;;;4938816;29;20444;-69
2021/05/17 10:52:24;;;;;;;8.60;7.90;;;19.50;99.90;;;;;;4939082;29;20472;-68
2021/05/17 10:55:17;;;;;;;8.60;7.90;;;19.50;99.90;;;;;;4938754;29;20976;-68
2021/05/17 10:57:59;;;;;;;10.00;9.20;;;19.40;99.90;;;;;;4925073;29;20563;-68
2021/05/17 11:00:26;;;;;;;10.37;9.37;;;19.30;99.90;;;;;;4938863;29;20420;-68
2021/05/17 11:03:09;;;;;;;10.20;9.20;;;19.30;99.90;;;;;;4938489;29;20432;-68
2021/05/17 11:05:37;;;;;;;9.90;9.00;;;19.10;99.90;;;;;;4938705;29;20470;-68
2021/05/17 11:08:06;;;;;;;10.53;9.63;;;19.00;99.90;;;;;;4938524;29;20511;-68
2021/05/17 11:10:37;;;;;;;11.50;9.60;;;18.90;99.90;;;;;;4938733;29;20871;-68
2021/05/17 11:13:14;;;;;;;9.97;9.17;;;18.80;99.90;;;;;;4938738;29;20420;-68
2021/05/17 11:15:58;;;;;;;9.37;8.37;;;18.70;99.90;;;;;;4938540;29;20475;-68
2021/05/17 11:18:27;;;;;;;9.03;8.23;;;18.50;99.90;;;;;;4938657;29;20425;-68
2021/05/17 11:20:59;;;;;;;5.50;5.07;;;18.40;99.90;;;;;;4938731;29;20994;-68
2021/05/17 11:23:53;;;;;;;4.23;3.83;;;18.20;99.80;;;;;;4938480;29;20801;-68
2021/05/17 11:26:23;;;;;;;1.67;1.57;;;18.00;99.70;;;;;;4936998;29;20539;-68
2021/05/17 11:28:56;;;;;;;1.67;1.50;;;17.80;99.60;;;;;;4938369;29;20427;-68
2021/05/17 11:31:49;;;;;;;1.37;1.03;;;17.60;99.40;;;;;;4938594;29;20507;-68
2021/05/17 11:34:27;;;;;;;1.47;1.23;;;17.40;99.40;;;;;;4938522;29;21022;-68
2021/05/17 11:37:12;;;;;;;1.83;1.10;;;17.20;99.40;;;;;;4938302;29;20424;-68
2021/05/17 11:39:41;;;;;;;1.80;1.20;;;17.10;99.40;;;;;;4938011;29;20551;-68
2021/05/17 11:42:12;;;;;;;1.47;1.37;;;16.90;99.60;;;;;;4938091;29;20535;-68
2021/05/17 11:44:47;;;;;;;1.27;1.17;;;16.80;99.60;;;;;;4937875;29;20463;-68
2021/05/17 11:47:20;;;;;;;2.03;1.73;;;16.80;99.70;;;;;;4938160;29;20902;-68
2021/05/17 11:49:50;;;;;;;1.30;1.10;;;16.70;99.80;;;;;;4937290;29;20437;-67
2021/05/17 11:52:20;;;;;;;1.10;0.90;;;16.80;99.80;;;;;;4937697;29;20486;-67
2021/05/17 11:54:50;;;;;;;7.13;4.50;;;16.80;99.80;;;;;;4937852;29;20743;-68
2021/05/17 11:57:20;;;;;;;1.90;1.00;;;16.70;99.90;;;;;;4937560;29;20428;-68
2021/05/17 11:59:49;;;;;;;1.70;1.60;;;16.80;99.90;;;;;;4937838;29;20428;-68
2021/05/17 12:02:17;;;;;;;3.40;3.10;;;16.80;99.90;;;;;;4937698;29;20471;-67
2021/05/17 12:04:46;;;;;;;4.43;4.03;;;16.90;99.90;;;;;;4937314;29;20463;-68
2021/05/17 12:07:15;;;;;;;5.27;4.40;;;17.00;99.90;;;;;;4937723;29;20480;-67
2021/05/17 12:09:45;;;;;;;5.93;5.40;;;17.10;99.90;;;;;;4937375;29;20470;-68
2021/05/17 12:12:14;;;;;;;5.83;5.23;;;17.10;99.90;;;;;;4937582;29;20425;-67
2021/05/17 12:14:44;;;;;;;5.10;4.60;;;17.20;99.90;;;;;;4936578;29;20870;-68
2021/05/17 12:17:17;;;;;;;5.90;4.00;;;17.20;99.90;;;;;;4937568;29;20527;-68
2021/05/17 12:19:47;;;;;;;3.67;3.37;;;17.30;99.90;;;;;;4937759;29;20447;-68
2021/05/17 12:22:18;;;;;;;4.77;4.00;;;17.30;99.90;;;;;;4937236;29;20570;-68
2021/05/17 12:24:46;;;;;;;4.20;3.80;;;17.40;99.90;;;;;;4937250;29;20463;-68
2021/05/17 12:27:16;;;;;;;4.10;3.80;;;17.30;99.90;;;;;;4935764;29;20814;-68
2021/05/17 12:29:55;;;;;;;4.70;4.30;;;17.40;99.90;;;;;;4936982;29;20425;-68
2021/05/17 12:32:25;;;;;;;4.13;3.73;;;17.40;99.90;;;;;;4937485;29;20452;-68
2021/05/17 12:35:03;;;;;;;4.53;4.13;;;17.40;99.90;;;;;;5132463;27;20584;-68
2021/05/17 12:37:33;;;;;;;4.33;3.73;;;17.60;99.90;;;;;;5132306;27;20415;-68
2021/05/17 12:40:23;;;;;;;4.10;3.33;;;17.70;99.90;;;;;;5132481;27;20511;-68
2021/05/17 12:43:06;;;;;;;3.83;3.20;;;17.80;99.90;;;;;;5131647;28;20842;-68
2021/05/17 12:45:36;;;;;;;3.57;3.27;;;18.00;99.90;;;;;;5130344;28;20240;-69
2021/05/17 12:48:09;;;;;;;2.70;2.50;;;18.10;99.90;;;;;;5131458;27;21015;-68
2021/05/17 12:50:37;;;;;;;1.70;1.53;;;18.10;99.90;;;;;;5131867;27;20422;-68
2021/05/17 12:53:07;;;;;;;1.80;1.70;;;18.10;99.90;;;;;;5131169;27;20484;-68
2021/05/17 12:55:40;;;;;;;2.50;2.30;;;18.10;99.90;;;;;;5130332;28;20253;-68
2021/05/17 12:58:09;;;;;;;3.17;2.90;;;18.10;99.90;;;;;;5131666;27;20420;-68
2021/05/17 13:00:47;;;;;;;5.20;3.57;;;18.10;99.90;;;;;;5131853;27;20435;-68
2021/05/17 13:03:17;;;;;;;4.13;3.70;;;18.20;99.90;;;;;;5131561;27;20475;-69
2021/05/17 13:05:54;;;;;;;3.97;3.57;;;18.20;99.90;;;;;;5131656;27;20451;-68
2021/05/17 13:08:28;;;;;;;4.50;4.20;;;18.20;99.90;;;;;;5129919;28;20431;-68
2021/05/17 13:10:59;;;;;;;4.40;4.00;;;18.20;99.90;;;;;;5131384;27;20843;-68
2021/05/17 13:13:48;;;;;;;4.70;4.30;;;18.30;99.90;;;;;;5129670;28;20900;-68